createdAt,value
2022-11-24T00:02:47.140Z,7.90
2022-11-24T00:06:48.907Z,7.90
2022-11-24T00:10:50.595Z,7.90
2022-11-24T00:14:52.392Z,7.90
2022-11-24T00:18:57.670Z,7.87
2022-11-24T00:22:59.347Z,7.88
2022-11-24T00:27:01.052Z,7.87
2022-11-24T00:31:04.631Z,7.87
2022-11-24T00:35:07.759Z,7.87
2022-11-24T00:39:14.133Z,7.84
2022-11-24T00:43:15.939Z,7.80
2022-11-24T00:47:17.669Z,7.76
2022-11-24T00:51:21.396Z,7.72
2022-11-24T00:55:23.139Z,7.71
2022-11-24T00:59:24.853Z,7.69
2022-11-24T01:03:26.533Z,7.68
2022-11-24T01:07:28.294Z,7.68
2022-11-24T01:11:51.822Z,7.68
2022-11-24T01:15:53.650Z,7.68
2022-11-24T01:19:55.305Z,7.65
2022-11-24T01:23:57.812Z,7.64
2022-11-24T01:27:59.651Z,7.64
2022-11-24T01:32:01.410Z,7.62
2022-11-24T01:36:04.178Z,7.57
2022-11-24T01:40:06.565Z,7.52
2022-11-24T01:44:25.890Z,7.50
2022-11-24T01:48:32.500Z,7.51
2022-11-24T01:52:42.772Z,7.51
2022-11-24T01:56:49.099Z,7.52
2022-11-24T02:00:51.677Z,7.52
2022-11-24T02:04:54.161Z,7.50
2022-11-24T02:09:01.281Z,7.51
2022-11-24T02:13:04.330Z,7.52
2022-11-24T02:17:06.011Z,7.55
2022-11-24T02:21:08.393Z,7.56
2022-11-24T02:25:28.047Z,7.57
2022-11-24T02:29:29.818Z,7.56
2022-11-24T02:33:33.474Z,7.56
2022-11-24T02:37:35.436Z,7.55
2022-11-24T02:41:38.123Z,7.55
2022-11-24T02:45:40.133Z,7.55
2022-11-24T02:49:42.295Z,7.55
2022-11-24T02:53:44.075Z,7.53
2022-11-24T02:57:46.226Z,7.52
2022-11-24T03:01:48.108Z,7.51
2022-11-24T03:05:50.285Z,7.52
2022-11-24T03:09:51.922Z,7.51
2022-11-24T03:13:53.819Z,7.52
2022-11-24T03:17:56.883Z,7.52
2022-11-24T03:21:58.998Z,7.50
2022-11-24T03:26:18.783Z,7.52
2022-11-24T03:30:20.555Z,7.54
2022-11-24T03:34:22.324Z,7.56
2022-11-24T03:38:23.984Z,7.59
2022-11-24T03:42:25.646Z,7.64
2022-11-24T03:46:27.406Z,7.69
2022-11-24T03:50:29.325Z,7.73
2022-11-24T03:54:31.267Z,7.75
2022-11-24T03:58:33.309Z,7.78
2022-11-24T04:02:35.078Z,7.80
2022-11-24T04:06:36.799Z,7.82
2022-11-24T04:10:39.512Z,7.83
2022-11-24T04:14:41.247Z,7.85
2022-11-24T04:18:43.544Z,7.86
2022-11-24T04:22:45.306Z,7.88
2022-11-24T04:26:47.097Z,7.88
2022-11-24T04:30:48.795Z,7.85
2022-11-24T04:34:50.506Z,7.80
2022-11-24T04:39:25.723Z,7.71
2022-11-24T04:43:18.511Z,7.63
2022-11-24T04:47:22.090Z,7.57
2022-11-24T04:51:24.020Z,7.50
2022-11-24T04:55:25.725Z,7.44
2022-11-24T04:59:27.548Z,7.38
2022-11-24T05:03:29.231Z,7.33
2022-11-24T05:07:31.066Z,7.31
2022-11-24T05:11:32.807Z,7.25
2022-11-24T05:15:35.326Z,7.20
2022-11-24T05:19:37.058Z,7.20
2022-11-24T05:23:38.999Z,7.18
2022-11-24T05:27:40.896Z,7.18
2022-11-24T05:31:42.760Z,7.16
2022-11-24T05:35:45.544Z,7.16
2022-11-24T05:39:47.265Z,7.15
2022-11-24T05:43:48.959Z,7.11
2022-11-24T05:47:51.599Z,7.12
2022-11-24T05:51:53.341Z,7.13
2022-11-24T05:55:55.052Z,7.15
2022-11-24T05:59:56.764Z,7.16
2022-11-24T06:03:58.434Z,7.18
2022-11-24T06:08:00.874Z,7.19
2022-11-24T06:12:02.640Z,7.20
2022-11-24T06:16:04.597Z,7.21
2022-11-24T06:20:07.684Z,7.21
2022-11-24T06:24:09.409Z,7.21
2022-11-24T06:28:11.073Z,7.23
2022-11-24T06:32:12.809Z,7.23
2022-11-24T06:36:15.339Z,7.25
2022-11-24T06:40:17.243Z,7.28
2022-11-24T06:44:19.358Z,7.30
2022-11-24T06:48:21.126Z,7.31
2022-11-24T06:52:22.822Z,7.29
2022-11-24T06:56:24.554Z,7.26
2022-11-24T07:00:26.361Z,7.25
2022-11-24T07:04:28.047Z,7.25
2022-11-24T07:08:29.751Z,7.23
2022-11-24T07:12:35.371Z,7.20
2022-11-24T07:16:37.248Z,7.21
2022-11-24T07:20:39.175Z,7.22
2022-11-24T07:24:41.489Z,7.22
2022-11-24T07:28:43.176Z,7.22
2022-11-24T07:32:44.866Z,7.22
2022-11-24T07:36:46.544Z,7.19
2022-11-24T07:40:48.322Z,7.17
2022-11-24T07:44:50.011Z,7.18
2022-11-24T07:48:51.927Z,7.17
2022-11-24T07:52:53.713Z,7.17
2022-11-24T07:56:55.649Z,7.20
2022-11-24T08:00:58.182Z,7.23
2022-11-24T08:04:59.987Z,7.26
2022-11-24T08:09:02.085Z,7.28
2022-11-24T08:13:03.816Z,7.27
2022-11-24T08:17:05.644Z,7.25
2022-11-24T08:21:08.733Z,7.24
2022-11-24T08:25:11.049Z,7.28
2022-11-24T08:29:12.776Z,7.34
2022-11-24T08:33:14.590Z,7.34
2022-11-24T08:37:16.428Z,7.39
2022-11-24T08:41:18.203Z,7.43
2022-11-24T08:45:21.655Z,7.45
2022-11-24T08:49:24.793Z,7.54
2022-11-24T08:53:26.612Z,7.57
2022-11-24T08:57:28.537Z,7.56
2022-11-24T09:01:30.349Z,7.55
2022-11-24T09:09:54.026Z,7.60
2022-11-24T09:13:55.902Z,7.65
2022-11-24T09:17:57.695Z,7.72
2022-11-24T09:21:59.426Z,7.81
2022-11-24T09:26:06.203Z,7.91
2022-11-24T09:30:08.764Z,7.95
2022-11-24T09:34:15.226Z,8.00
2022-11-24T09:38:16.926Z,8.05
2022-11-24T09:42:53.836Z,8.08
2022-11-24T09:47:13.608Z,8.11
2022-11-24T09:51:16.167Z,8.15
2022-11-24T09:55:27.458Z,8.20
2022-11-24T09:59:29.233Z,8.25
2022-11-24T10:03:42.003Z,8.32
2022-11-24T10:07:56.795Z,8.36
2022-11-24T10:12:05.215Z,8.39
2022-11-24T10:16:24.667Z,8.41
2022-11-24T10:20:49.726Z,8.44
2022-11-24T10:25:04.164Z,8.43
2022-11-24T10:29:34.782Z,8.43
2022-11-24T10:33:36.918Z,8.47
2022-11-24T10:37:50.788Z,8.50
2022-11-24T10:42:16.449Z,8.54
2022-11-24T10:46:27.309Z,8.55
2022-11-24T10:50:33.341Z,8.58
2022-11-24T10:54:36.207Z,8.57
2022-11-24T10:58:39.120Z,8.60
2022-11-24T11:02:41.115Z,8.61
2022-11-24T11:06:43.970Z,8.63
2022-11-24T11:10:47.210Z,8.66
2022-11-24T11:14:48.964Z,8.67
2022-11-24T11:18:50.897Z,8.70
2022-11-24T11:22:56.105Z,8.71
2022-11-24T11:27:02.723Z,8.74
2022-11-24T11:31:17.135Z,8.77
2022-11-24T11:35:19.583Z,8.79
2022-11-24T11:39:25.232Z,8.80
2022-11-24T11:43:34.887Z,8.84
2022-11-24T11:47:43.434Z,8.86
2022-11-24T11:52:08.304Z,8.89
2022-11-24T11:56:25.835Z,8.93
2022-11-24T12:00:29.236Z,8.97
2022-11-24T12:04:58.861Z,9.01
2022-11-24T12:09:19.774Z,9.04
2022-11-24T12:13:50.327Z,9.08
2022-11-24T12:17:58.450Z,9.11
2022-11-24T12:22:13.856Z,9.15
2022-11-24T12:26:30.967Z,9.17
2022-11-24T12:30:45.079Z,9.21
2022-11-24T12:35:18.316Z,9.28
2022-11-24T12:39:49.218Z,9.33
2022-11-24T12:43:53.485Z,9.37
2022-11-24T12:48:21.303Z,9.39
2022-11-24T12:52:27.457Z,9.44
2022-11-24T12:56:40.728Z,9.47
2022-11-24T13:01:14.669Z,9.47
2022-11-24T13:05:41.275Z,9.52
2022-11-24T13:10:34.676Z,9.52
2022-11-24T13:14:48.181Z,9.55
2022-11-24T13:19:02.636Z,9.54
2022-11-24T13:23:08.514Z,9.54
2022-11-24T13:27:15.547Z,9.55
2022-11-24T13:31:23.033Z,9.55
2022-11-24T13:35:24.920Z,9.55
2022-11-24T13:39:50.536Z,9.54
2022-11-24T13:44:14.773Z,9.52
2022-11-24T13:48:19.832Z,9.51
2022-11-24T13:52:40.123Z,9.50
2022-11-24T13:56:41.908Z,9.49
2022-11-24T14:01:21.422Z,9.50
2022-11-24T14:05:33.590Z,9.46
2022-11-24T14:09:51.214Z,9.40
2022-11-24T14:13:56.044Z,9.35
2022-11-24T14:17:58.024Z,9.31
2022-11-24T14:21:59.767Z,9.30
2022-11-24T14:26:01.475Z,9.29
2022-11-24T14:30:15.558Z,9.30
2022-11-24T14:34:22.074Z,9.34
2022-11-24T14:38:23.834Z,9.36
2022-11-24T14:42:28.548Z,9.35
2022-11-24T14:46:30.473Z,9.30
2022-11-24T14:50:32.348Z,9.26
2022-11-24T14:54:37.649Z,9.21
2022-11-24T14:58:42.381Z,9.18
2022-11-24T15:02:52.216Z,9.12
2022-11-24T15:07:12.662Z,9.08
2022-11-24T15:11:14.859Z,9.04
2022-11-24T15:15:18.381Z,8.99
2022-11-24T15:19:20.301Z,8.94
2022-11-24T15:23:25.260Z,8.91
2022-11-24T15:27:26.909Z,8.87
2022-11-24T15:31:28.757Z,8.83
2022-11-24T15:35:32.438Z,8.80
2022-11-24T15:39:34.274Z,8.76
2022-11-24T15:43:40.976Z,8.70
2022-11-24T15:47:42.727Z,8.66
2022-11-24T15:51:46.192Z,8.62
2022-11-24T15:55:48.666Z,8.57
2022-11-24T15:59:50.684Z,8.52
2022-11-24T16:03:52.369Z,8.49
2022-11-24T16:07:54.133Z,8.46
2022-11-24T16:11:55.932Z,8.43
2022-11-24T16:15:57.666Z,8.40
2022-11-24T16:20:00.736Z,8.38
2022-11-24T16:24:02.724Z,8.35
2022-11-24T16:28:04.677Z,8.33
2022-11-24T16:32:06.479Z,8.31
2022-11-24T16:36:08.747Z,8.30
2022-11-24T16:40:11.016Z,8.30
2022-11-24T16:44:12.796Z,8.29
2022-11-24T16:48:14.555Z,8.29
2022-11-24T16:52:16.860Z,8.28
2022-11-24T16:56:19.244Z,8.29
2022-11-24T17:00:21.115Z,8.27
2022-11-24T17:04:22.854Z,8.27
2022-11-24T17:08:24.624Z,8.24
2022-11-24T17:12:27.197Z,8.24
2022-11-24T17:16:29.724Z,8.24
2022-11-24T17:20:31.757Z,8.23
2022-11-24T17:24:34.011Z,8.22
2022-11-24T17:28:36.426Z,8.21
2022-11-24T17:32:38.360Z,8.19
2022-11-24T17:36:41.602Z,8.19
2022-11-24T17:40:48.081Z,8.18
2022-11-24T17:44:49.952Z,8.16
2022-11-24T17:48:51.720Z,8.15
2022-11-24T17:52:54.383Z,8.13
2022-11-24T17:56:56.088Z,8.12
2022-11-24T18:00:58.553Z,8.13
2022-11-24T18:05:00.262Z,8.12
2022-11-24T18:09:02.094Z,8.12
2022-11-24T18:13:03.868Z,8.13
2022-11-24T18:17:05.931Z,8.12
2022-11-24T18:21:14.166Z,8.11
2022-11-24T18:25:15.932Z,8.09
2022-11-24T18:29:17.777Z,8.07
2022-11-24T18:33:20.344Z,8.04
2022-11-24T18:37:22.264Z,8.01
2022-11-24T18:41:24.195Z,7.97
2022-11-24T18:45:26.395Z,7.95
2022-11-24T18:49:28.316Z,7.93
2022-11-24T18:53:30.563Z,7.93
2022-11-24T18:57:32.356Z,7.92
2022-11-24T19:01:34.257Z,7.94
2022-11-24T19:05:36.056Z,7.94
2022-11-24T19:09:38.167Z,7.95
2022-11-24T19:13:39.989Z,7.96
2022-11-24T19:17:41.843Z,7.97
2022-11-24T19:21:44.151Z,7.96
2022-11-24T19:25:47.364Z,7.94
2022-11-24T19:29:49.195Z,7.94
2022-11-24T19:33:52.937Z,7.93
2022-11-24T19:37:55.827Z,7.91
2022-11-24T19:41:57.596Z,7.90
2022-11-24T19:46:04.552Z,7.89
2022-11-24T19:50:10.332Z,7.89
2022-11-24T19:54:15.068Z,7.89
2022-11-24T19:58:16.785Z,7.91
2022-11-24T20:02:18.664Z,7.93
2022-11-24T20:06:20.483Z,7.96
2022-11-24T20:10:22.315Z,7.99
2022-11-24T20:14:24.102Z,8.04
2022-11-24T20:18:27.207Z,8.08
2022-11-24T20:22:29.264Z,8.11
2022-11-24T20:26:35.226Z,8.13
2022-11-24T20:30:36.956Z,8.14
2022-11-24T20:34:38.719Z,8.16
2022-11-24T20:38:41.672Z,8.17
2022-11-24T20:42:43.585Z,8.15
2022-11-24T20:46:46.735Z,8.14
2022-11-24T20:50:51.278Z,8.15
2022-11-24T20:54:53.554Z,8.15
2022-11-24T20:58:55.710Z,8.16
2022-11-24T21:02:58.617Z,8.16
2022-11-24T21:07:00.412Z,8.16
2022-11-24T21:11:03.849Z,8.17
2022-11-24T21:15:07.738Z,8.18
2022-11-24T21:19:14.824Z,8.18
2022-11-24T21:23:17.248Z,8.18
2022-11-24T21:27:18.964Z,8.19
2022-11-24T21:31:21.588Z,8.22
2022-11-24T21:35:23.653Z,8.25
2022-11-24T21:39:25.528Z,8.26
2022-11-24T21:43:31.047Z,8.30
2022-11-24T21:47:33.845Z,8.32
2022-11-24T21:51:35.587Z,8.35
2022-11-24T21:55:37.302Z,8.37
2022-11-24T21:59:39.173Z,8.39
2022-11-24T22:03:41.053Z,8.40
2022-11-24T22:07:45.170Z,8.41
2022-11-24T22:11:52.387Z,8.42
2022-11-24T22:16:06.247Z,8.45
2022-11-24T22:20:08.691Z,8.44
2022-11-24T22:24:10.771Z,8.47
2022-11-24T22:28:12.485Z,8.47
2022-11-24T22:32:14.339Z,8.47
2022-11-24T22:36:17.609Z,8.47
2022-11-24T22:40:19.322Z,8.48
2022-11-24T22:44:21.152Z,8.48
2022-11-24T22:48:22.820Z,8.47
2022-11-24T22:52:24.730Z,8.46
2022-11-24T22:56:28.099Z,8.45
2022-11-24T23:00:29.959Z,8.45
2022-11-24T23:04:31.777Z,8.44
2022-11-24T23:08:35.100Z,8.45
2022-11-24T23:12:36.983Z,8.44
2022-11-24T23:16:39.049Z,8.43
2022-11-24T23:20:40.771Z,8.42
2022-11-24T23:24:42.502Z,8.37
2022-11-24T23:28:44.605Z,8.36
2022-11-24T23:32:46.393Z,8.33
2022-11-24T23:36:48.859Z,8.31
2022-11-24T23:40:50.685Z,8.27
2022-11-24T23:44:52.399Z,8.26
2022-11-24T23:48:55.453Z,8.25
2022-11-24T23:52:57.128Z,8.24
2022-11-24T23:56:58.852Z,8.23
